Pagina principale
METAR-TAF:

METAR-TAF

Aeroporti :

Cannes, Francia

latitudine: 43-33N, longitudine: 006-57E, altezza: 3 m

Osservazione

Il bollettino è stato emesso 28 minuti fa, alle 11:00 UTC
Vento 7 kt da sud/sud-est, variando fra est/sud-est e sud
Temperature 26°C
Umidità 34%
Pressione 1025 hPa
Visibilità 10 km o più
nessuna nube inferiore a 1500 m e nessun cumulonembo

METAR: LFMD 191100Z AUTO 16007KT 110V190 CAVOK 26/09 Q1025 NOSIG

Ora: 13:28 (11:28 UTC)

Previsione

Il bollettino è stato emesso 3 ore e 28 minuti fa, alle 08:00 UTC
Previsione valida dal 19 alle 09 UTC al 20 alle 09 UTC
Vento 10 kt da est
Visibilità 10 km o più
nessuna nube inferiore a 1500 m e nessun cumulonembo
Evoluzione graduale
dal 19 alle 11 UTC al 19 alle 13 UTC
Vento 2 kt da direzioni variabili

TAF: LFMD 190800Z 1909/2009 08010KT CAVOK BECMG 1911/1913 VRB02KT

Osservazioni e previsioni meteorologiche di più di 4000 aeroporti (messaggi METAR e TAF).

Le stazioni disponibili sono rappresentate dai dischi gialli e rossi sulla carta.

Puntare il mouse per vedere il nome della stazione.

Clicca sopra per visualizzare le osservazioni e previsioni meteorologiche.

Per cambiare la mappa : fare clic sui pulsanti verdi con una croce nera per ingrandire, il pulsante verde con un trattino per diminuire, o sulla freccia verde per le mappe adiacenti.


METAR-TAF: